KLVM

Mission Field Airport

Livingston, Montana, USA
METAR KLVM 201453Z AUTO 33013KT 10SM OVC070 M24/M27 A2996 RMK AO2 SLP271 T12441272 51010
Observed Flight Rules
Feb-20 @ 14:53 UTC (2 hours ago) Visual Flight Rules
Wind Visibility Clouds
330° at 13 knots 10 miles
  • Overcast at 7,000' AGL
Temperatures Readings
Current -24°C / -11°F
Dewpoint -27°C / -17°F
Humidity 76%
Altimeter 29.96" Hg
Pressure 1027.1 hPa
Elevation 1418
METAR KLVM 201453Z AUTO 33013KT 10SM OVC070 M24/M27 A2996 RMK AO2 SLP271 T12441272 51010
Observed Flight Rules
Feb-20 @ 14:53 UTC
(2 hours ago)
VFR
Wind Visibility
330° at 13 knots 10 miles
Clouds
  • Overcast at 7,000' AGL
Temperature Dewpoint
-24°C / -11°F -27°C / -17°F
Humidity Altimeter Pressure
76% 29.96" Hg 1027.1 hPa